Suttons Bay, MI (49682)

7:47 AM EST on February 14, 2016 (GMT -0500)
Knorrwood Bluffs | | Change Station
CLOSE
Current Station
Personal Weather Station
Location: Suttons Bay, MI
Elevation: 676 ft
Nearby Weather Stations

Elev 676 ft 44.96 °N, 85.61 °W | Updated 22 seconds ago

Overcast
Overcast
13.4 °F
Feels Like 13 °F
N
0.0
Wind Variable Wind from SE
Gusts 0.0 mph

Today
High -- | Low -- °F
--% Chance of Precip.
Yesterday
High -- | Low -- °F
Precip. -- in
Pressure 30.44 in
Visibility 10.0 miles
Clouds Overcast 3600 ft
Windchill 13 °F
Dew Point 8 °F
Humidity 80%
Rainfall 0.00 in
Snow Depth Not available.
7:45 AM 6:08 PM
Waxing Crescent, 41% visible
METAR KTVC 141153Z 15004KT 10SM OVC036 M11/M16 A3039 RMK AO2 SLP307 FIRST AUGMENTED OBS OF THE DAY 4/017 70002 T11111161 11111 21117 56006 $
Pressure 30.44 in
Visibility 10.0 miles
Clouds Overcast 3600 ft
Windchill 13 °F
Dew Point 8 °F
Humidity 80%
Rainfall 0.00 in
Snow Depth Not available.
7:45 AM 6:08 PM
Waxing Crescent, 41% visible
METAR KTVC 141153Z 15004KT 10SM OVC036 M11/M16 A3039 RMK AO2 SLP307 FIRST AUGMENTED OBS OF THE DAY 4/017 70002 T11111161 11111 21117 56006 $

10-Day Weather Forecast

Almanac

Astronomy

Feb. 14, 2016 Rise Set
Actual Time
Civil Twilight
Nautical Twilight
Astronomical Twilight
Moon
Length of Visible Light
Length of Day
Tomorrow will be .
, % of the Moon is Illuminated

Today's Extremes

State Highs State Lows

Community

WunderPhotos

Upload Photos

1,892,775 photos uploaded!

WunderBlog® & News

Nearby

Air Quality

  Air Quality AQ Index Pollutant
Not available.

Snow Depth

Station Depth Elevation

Earthquake Activity

City Distance Mag. Time & Date
Minimum magnitude displayed is 2.5.

Coastal Water Temperatures

Place Temperature

Stations

Nearby Weather Stations

Station Location Temp. Windchill Dew Point Humidity Wind Precip. Elev Updated Type
                   

Watches & Warnings

There are currently no watches in effect.